createdAt,value
2023-03-06T00:00:53.178Z,24.42
2023-03-06T00:03:20.446Z,24.70
2023-03-06T00:05:47.275Z,28.02
2023-03-06T00:08:14.129Z,27.73
2023-03-06T00:10:41.214Z,26.27
2023-03-06T00:13:11.491Z,26.15
2023-03-06T00:15:38.248Z,26.42
2023-03-06T00:18:05.878Z,26.08
2023-03-06T00:20:33.291Z,25.60
2023-03-06T00:22:59.965Z,27.42
2023-03-06T00:25:26.666Z,25.92
2023-03-06T00:27:53.512Z,29.05
2023-03-06T00:30:22.330Z,28.48
2023-03-06T00:32:49.321Z,27.75
2023-03-06T00:35:16.269Z,23.67
2023-03-06T00:37:43.067Z,24.17
2023-03-06T00:40:12.997Z,26.25
2023-03-06T00:42:39.907Z,24.10
2023-03-06T00:45:07.180Z,26.05
2023-03-06T00:47:33.960Z,22.92
2023-03-06T00:50:00.801Z,22.45
2023-03-06T00:52:27.541Z,25.63
2023-03-06T00:54:54.238Z,23.27
2023-03-06T00:57:21.024Z,25.90
2023-03-06T00:59:47.730Z,26.23
2023-03-06T01:02:14.549Z,26.83
2023-03-06T01:04:41.318Z,24.52
2023-03-06T01:07:08.206Z,23.38
2023-03-06T01:09:34.898Z,25.10
2023-03-06T01:12:01.707Z,28.75
2023-03-06T01:14:28.574Z,26.63
2023-03-06T01:16:55.382Z,22.42
2023-03-06T01:19:22.191Z,25.40
2023-03-06T01:21:48.916Z,25.42
2023-03-06T01:24:15.642Z,21.40
2023-03-06T01:26:42.400Z,26.17
2023-03-06T01:29:09.100Z,26.25
2023-03-06T01:31:35.879Z,20.98
2023-03-06T01:34:02.575Z,23.98
2023-03-06T01:36:29.293Z,22.92
2023-03-06T01:38:55.963Z,21.83
2023-03-06T01:41:22.810Z,22.67
2023-03-06T01:43:49.820Z,22.85
2023-03-06T01:46:18.759Z,27.08
2023-03-06T01:48:45.448Z,23.10
2023-03-06T01:51:12.337Z,24.35
2023-03-06T01:53:40.631Z,27.30
2023-03-06T01:56:07.421Z,25.27
2023-03-06T01:58:34.149Z,21.35
2023-03-06T02:01:00.900Z,25.67
2023-03-06T02:03:27.780Z,23.13
2023-03-06T02:05:54.569Z,22.27
2023-03-06T02:08:22.182Z,27.15
2023-03-06T02:11:10.373Z,22.60
2023-03-06T02:13:37.324Z,23.35
2023-03-06T02:16:09.563Z,23.48
2023-03-06T02:18:36.855Z,22.80
2023-03-06T02:21:06.855Z,21.42
2023-03-06T02:24:11.893Z,22.52
2023-03-06T02:26:38.842Z,19.88
2023-03-06T02:29:05.564Z,20.83
2023-03-06T02:31:34.044Z,17.80
2023-03-06T02:34:14.936Z,20.63
2023-03-06T02:36:43.922Z,20.35
2023-03-06T02:39:10.686Z,19.25
2023-03-06T02:41:37.450Z,21.25
2023-03-06T02:44:04.128Z,19.13
2023-03-06T02:46:30.944Z,19.48
2023-03-06T02:48:57.757Z,21.00
2023-03-06T02:51:24.483Z,20.77
2023-03-06T02:53:51.126Z,18.10
2023-03-06T02:56:19.333Z,21.30
2023-03-06T02:58:46.362Z,18.52
2023-03-06T03:01:13.027Z,19.58
2023-03-06T03:03:39.742Z,21.23
2023-03-06T03:06:07.438Z,15.35
2023-03-06T03:08:34.673Z,17.85
2023-03-06T03:11:01.759Z,20.13
2023-03-06T03:13:28.497Z,19.80
2023-03-06T03:16:06.251Z,18.73
2023-03-06T03:18:33.116Z,16.65
2023-03-06T03:20:59.854Z,17.10
2023-03-06T03:23:26.675Z,18.42
2023-03-06T03:25:53.721Z,21.52
2023-03-06T03:28:20.510Z,17.83
2023-03-06T03:30:47.297Z,19.88
2023-03-06T03:33:14.160Z,19.30
2023-03-06T03:35:59.456Z,17.20
2023-03-06T03:38:26.584Z,18.15
2023-03-06T03:40:53.258Z,19.08
2023-03-06T03:43:20.278Z,20.58
2023-03-06T03:45:46.959Z,14.88
2023-03-06T03:48:13.708Z,18.88
2023-03-06T03:50:40.390Z,18.60
2023-03-06T03:53:07.085Z,19.13
2023-03-06T03:55:33.801Z,22.85
2023-03-06T03:58:00.594Z,16.60
2023-03-06T04:00:27.294Z,15.32
2023-03-06T04:02:54.101Z,15.95
2023-03-06T04:05:20.886Z,17.85
2023-03-06T04:07:47.724Z,15.38
2023-03-06T04:10:14.400Z,20.80
2023-03-06T04:12:41.160Z,16.98
2023-03-06T04:15:08.449Z,15.77
2023-03-06T04:17:35.256Z,16.27
2023-03-06T04:20:02.586Z,15.50
2023-03-06T04:22:29.354Z,16.13
2023-03-06T04:24:56.044Z,17.27
2023-03-06T04:27:22.786Z,17.67
2023-03-06T04:29:49.585Z,18.30
2023-03-06T04:32:16.322Z,16.48
2023-03-06T04:34:43.048Z,14.23
2023-03-06T04:37:22.856Z,14.63
2023-03-06T04:39:49.764Z,18.40
2023-03-06T04:42:16.780Z,15.65
2023-03-06T04:44:43.964Z,15.85
2023-03-06T04:47:10.984Z,14.98
2023-03-06T04:49:38.158Z,14.73
2023-03-06T04:52:07.141Z,17.58
2023-03-06T04:54:33.813Z,13.23
2023-03-06T04:57:01.043Z,17.77
2023-03-06T04:59:27.843Z,15.55
2023-03-06T05:01:55.316Z,15.23
2023-03-06T05:04:22.057Z,14.10
2023-03-06T05:06:48.855Z,14.10
2023-03-06T05:09:15.583Z,16.67
2023-03-06T05:11:42.304Z,14.00
2023-03-06T05:14:08.956Z,15.88
2023-03-06T05:16:35.713Z,16.52
2023-03-06T05:19:02.535Z,14.68
2023-03-06T05:21:29.270Z,16.20
2023-03-06T05:23:55.998Z,15.55
2023-03-06T05:26:23.084Z,18.55
2023-03-06T05:28:50.163Z,15.95
2023-03-06T05:31:17.243Z,18.08
2023-03-06T05:33:43.999Z,13.23
2023-03-06T05:36:16.755Z,18.02
2023-03-06T05:38:43.468Z,19.73
2023-03-06T05:41:14.378Z,15.55
2023-03-06T05:43:54.525Z,19.80
2023-03-06T05:46:21.270Z,12.98
2023-03-06T05:48:49.052Z,16.88
2023-03-06T05:52:12.675Z,14.57
2023-03-06T05:54:39.394Z,15.10
2023-03-06T05:57:06.280Z,14.23
2023-03-06T05:59:33.273Z,17.85
2023-03-06T06:02:00.878Z,17.73
2023-03-06T06:04:27.684Z,16.00
2023-03-06T06:06:56.106Z,14.80
2023-03-06T06:09:23.101Z,15.10
2023-03-06T06:11:54.500Z,14.45
2023-03-06T06:14:21.708Z,12.93
2023-03-06T06:16:48.859Z,14.98
2023-03-06T06:19:18.860Z,15.93
2023-03-06T06:21:50.740Z,13.43
2023-03-06T06:24:19.057Z,15.48
2023-03-06T06:26:46.166Z,15.15
2023-03-06T06:29:13.635Z,14.70
2023-03-06T06:31:40.810Z,12.85
2023-03-06T06:34:07.838Z,17.88
2023-03-06T06:36:34.709Z,18.10
2023-03-06T06:39:01.730Z,24.23
2023-03-06T06:41:46.632Z,21.60
2023-03-06T06:44:16.352Z,22.40
2023-03-06T06:49:32.688Z,23.02
2023-03-06T06:51:59.731Z,22.92
2023-03-06T06:54:26.646Z,24.33
2023-03-06T06:56:53.693Z,20.77
2023-03-06T06:59:20.746Z,22.80
2023-03-06T07:01:47.521Z,20.27
2023-03-06T07:04:15.777Z,16.05
2023-03-06T07:06:58.401Z,15.82
2023-03-06T07:09:25.376Z,13.98
2023-03-06T07:11:58.455Z,12.48
2023-03-06T07:16:51.976Z,16.52
2023-03-06T07:19:18.765Z,15.43
2023-03-06T07:21:51.849Z,15.57
2023-03-06T07:26:48.469Z,13.05
2023-03-06T07:29:15.487Z,17.42
2023-03-06T07:31:42.345Z,14.48
2023-03-06T07:34:11.177Z,15.68
2023-03-06T07:36:40.452Z,14.85
2023-03-06T07:39:08.204Z,11.70
2023-03-06T07:41:35.314Z,16.60
2023-03-06T07:44:02.044Z,16.15
2023-03-06T07:46:29.071Z,13.73
2023-03-06T07:48:55.941Z,14.40
2023-03-06T07:51:22.748Z,13.80
2023-03-06T07:53:49.940Z,15.52
2023-03-06T07:56:16.800Z,13.13
2023-03-06T07:58:47.556Z,12.40
2023-03-06T08:01:16.980Z,10.98
2023-03-06T08:03:47.470Z,18.40
2023-03-06T08:06:16.562Z,15.38
2023-03-06T08:08:44.756Z,15.85
2023-03-06T08:11:12.563Z,16.50
2023-03-06T08:13:40.533Z,11.48
2023-03-06T08:16:08.243Z,13.23
2023-03-06T08:18:35.191Z,13.80
2023-03-06T08:21:06.956Z,11.60
2023-03-06T08:23:34.461Z,12.50
2023-03-06T08:26:03.399Z,11.13
2023-03-06T08:28:30.220Z,11.85
2023-03-06T08:30:58.417Z,11.50
2023-03-06T08:33:25.278Z,12.43
2023-03-06T08:35:52.809Z,13.30
2023-03-06T08:38:19.641Z,13.52
2023-03-06T08:40:46.301Z,13.05
2023-03-06T08:43:19.338Z,11.10
2023-03-06T08:45:55.262Z,11.18
2023-03-06T08:48:22.155Z,10.60
2023-03-06T08:50:49.090Z,11.45
2023-03-06T08:53:15.885Z,11.10
2023-03-06T08:55:42.884Z,12.40
2023-03-06T08:58:09.758Z,14.32
2023-03-06T09:00:37.083Z,10.50
2023-03-06T09:03:04.654Z,10.30
2023-03-06T09:05:31.594Z,12.32
2023-03-06T09:07:58.369Z,9.57
2023-03-06T09:10:26.290Z,11.18
2023-03-06T09:12:54.779Z,11.43
2023-03-06T09:15:22.922Z,13.95
2023-03-06T09:17:50.928Z,10.48
2023-03-06T09:20:18.350Z,11.60
2023-03-06T09:22:45.834Z,13.40
2023-03-06T09:25:20.436Z,12.75
2023-03-06T09:27:55.482Z,11.38
2023-03-06T09:30:28.776Z,10.55
2023-03-06T09:32:55.511Z,10.40
2023-03-06T09:35:22.205Z,9.40
2023-03-06T09:37:48.897Z,11.15
2023-03-06T09:40:23.150Z,9.85
2023-03-06T09:42:49.980Z,11.63
2023-03-06T09:45:16.849Z,10.05
2023-03-06T09:47:56.944Z,10.75
2023-03-06T09:50:35.515Z,10.40
2023-03-06T09:53:15.703Z,10.63
2023-03-06T09:55:49.545Z,9.38
2023-03-06T09:58:22.237Z,9.75
2023-03-06T10:01:20.220Z,12.48
2023-03-06T10:03:48.829Z,11.75
2023-03-06T10:06:27.099Z,10.02
2023-03-06T10:09:14.545Z,11.20
2023-03-06T10:12:01.391Z,12.10
2023-03-06T10:14:39.135Z,12.20
2023-03-06T10:17:17.217Z,13.23
2023-03-06T10:19:43.941Z,11.15
2023-03-06T10:22:36.398Z,11.30
2023-03-06T10:25:28.106Z,12.10
2023-03-06T10:28:11.177Z,10.63
2023-03-06T10:30:50.088Z,13.35
2023-03-06T10:33:49.657Z,13.88
2023-03-06T10:36:17.849Z,12.63
2023-03-06T10:38:45.868Z,11.23
2023-03-06T10:41:12.528Z,12.70
2023-03-06T10:43:40.292Z,11.98
2023-03-06T10:46:08.373Z,11.40
2023-03-06T10:48:40.897Z,11.52
2023-03-06T10:51:20.669Z,10.25
2023-03-06T10:53:53.825Z,9.68
2023-03-06T10:59:25.375Z,10.55
2023-03-06T11:01:54.261Z,18.40
2023-03-06T11:04:21.357Z,14.93
2023-03-06T11:06:48.114Z,13.15
2023-03-06T11:09:19.592Z,14.75
2023-03-06T11:11:46.328Z,11.65
2023-03-06T11:14:18.340Z,10.35
2023-03-06T11:16:58.407Z,10.13
2023-03-06T11:19:27.493Z,9.15
2023-03-06T11:22:17.192Z,8.60
2023-03-06T11:24:46.833Z,9.60
2023-03-06T11:27:24.718Z,9.55
2023-03-06T11:29:53.878Z,9.63
2023-03-06T11:32:21.668Z,10.88
2023-03-06T11:34:50.939Z,9.85
2023-03-06T11:37:25.228Z,13.60
2023-03-06T11:40:05.668Z,11.68
2023-03-06T11:42:48.320Z,10.82
2023-03-06T11:45:37.357Z,12.77
2023-03-06T11:48:17.596Z,10.20
2023-03-06T11:50:46.595Z,13.05
2023-03-06T11:53:37.839Z,11.23
2023-03-06T11:56:05.783Z,9.93
2023-03-06T11:59:07.885Z,8.27
2023-03-06T12:01:55.441Z,13.60
2023-03-06T12:04:39.410Z,7.78
2023-03-06T12:07:15.175Z,10.85
2023-03-06T12:09:44.723Z,8.32
2023-03-06T12:12:20.503Z,9.90
2023-03-06T12:14:51.257Z,8.95
2023-03-06T12:17:59.997Z,12.45
2023-03-06T12:20:54.288Z,9.60
2023-03-06T12:23:45.888Z,9.48
2023-03-06T12:26:43.797Z,11.27
2023-03-06T12:29:10.518Z,9.63
2023-03-06T12:31:43.237Z,10.35
2023-03-06T12:34:19.214Z,8.38
2023-03-06T12:37:05.997Z,9.32
2023-03-06T12:40:00.662Z,10.88
2023-03-06T12:42:34.352Z,11.23
2023-03-06T12:45:40.264Z,9.80
2023-03-06T12:48:16.622Z,10.07
2023-03-06T12:50:44.626Z,11.52
2023-03-06T12:53:27.662Z,13.60
2023-03-06T12:55:54.377Z,10.88
2023-03-06T12:58:33.221Z,13.80
2023-03-06T13:01:24.189Z,11.57
2023-03-06T13:04:19.234Z,12.48
2023-03-06T13:06:55.274Z,11.40
2023-03-06T13:09:44.975Z,13.02
2023-03-06T13:12:15.394Z,11.18
2023-03-06T13:14:48.755Z,10.68
2023-03-06T13:17:33.590Z,10.52
2023-03-06T13:20:15.754Z,10.13
2023-03-06T13:22:46.386Z,9.02
2023-03-06T13:25:19.295Z,8.38
2023-03-06T13:30:39.115Z,8.55
2023-03-06T13:33:26.014Z,8.38
2023-03-06T13:35:55.717Z,9.32
2023-03-06T13:38:35.646Z,8.52
2023-03-06T13:41:20.866Z,10.68
2023-03-06T13:43:48.532Z,8.55
2023-03-06T13:46:27.544Z,7.72
2023-03-06T13:49:09.675Z,9.65
2023-03-06T13:51:41.351Z,7.30
2023-03-06T13:54:17.415Z,11.52
2023-03-06T13:57:14.195Z,9.50
2023-03-06T14:00:08.751Z,8.77
2023-03-06T14:03:09.175Z,8.27
2023-03-06T14:05:49.577Z,10.43
2023-03-06T14:08:30.979Z,8.25
2023-03-06T14:11:19.734Z,10.07
2023-03-06T14:13:50.162Z,8.65
2023-03-06T14:16:22.390Z,8.00
2023-03-06T14:18:51.021Z,9.07
2023-03-06T14:21:40.745Z,7.32
2023-03-06T14:24:18.422Z,8.02
2023-03-06T14:26:47.415Z,7.28
2023-03-06T14:29:28.132Z,8.32
2023-03-06T14:31:59.215Z,8.98
2023-03-06T14:34:30.237Z,7.63
2023-03-06T14:37:00.416Z,7.15
2023-03-06T14:39:34.827Z,11.15
2023-03-06T14:42:24.834Z,9.68
2023-03-06T14:45:06.676Z,10.77
2023-03-06T14:47:35.341Z,10.55
2023-03-06T14:50:30.963Z,9.82
2023-03-06T14:53:06.888Z,10.20
2023-03-06T14:55:35.000Z,9.38
2023-03-06T14:58:04.729Z,9.02
2023-03-06T15:00:36.863Z,10.77
2023-03-06T15:03:08.352Z,8.20
2023-03-06T15:05:35.135Z,8.07
2023-03-06T15:08:03.765Z,11.18
2023-03-06T15:10:32.456Z,11.35
2023-03-06T15:13:10.749Z,10.43
2023-03-06T15:15:37.521Z,8.13
2023-03-06T15:18:29.287Z,7.72
2023-03-06T15:21:26.746Z,7.93
2023-03-06T15:23:55.296Z,9.35
2023-03-06T15:26:33.520Z,8.73
2023-03-06T15:29:10.341Z,11.75
2023-03-06T15:31:42.328Z,9.57
2023-03-06T15:34:11.945Z,10.90
2023-03-06T15:36:47.408Z,11.38
2023-03-06T15:39:32.704Z,11.57
2023-03-06T15:42:28.061Z,11.45
2023-03-06T15:45:13.011Z,8.90
2023-03-06T15:47:39.770Z,11.85
2023-03-06T15:50:14.466Z,11.27
2023-03-06T15:52:41.171Z,14.60
2023-03-06T15:55:08.203Z,12.40
2023-03-06T15:57:37.041Z,9.93
2023-03-06T16:00:04.297Z,10.40
2023-03-06T16:02:31.175Z,11.57
2023-03-06T16:04:57.995Z,14.63
2023-03-06T16:07:26.797Z,14.32
2023-03-06T16:09:54.778Z,22.25
2023-03-06T16:12:21.914Z,13.85
2023-03-06T16:14:49.219Z,12.55
2023-03-06T16:17:16.202Z,10.85
2023-03-06T16:19:43.609Z,16.38
2023-03-06T16:22:10.853Z,18.23
2023-03-06T16:24:37.805Z,16.92
2023-03-06T16:27:04.924Z,16.60
2023-03-06T16:29:31.867Z,15.32
2023-03-06T16:31:59.253Z,15.88
2023-03-06T16:34:27.197Z,13.15
2023-03-06T16:36:54.963Z,13.70
2023-03-06T16:39:23.457Z,12.18
2023-03-06T16:41:50.408Z,13.07
2023-03-06T16:44:17.266Z,24.23
2023-03-06T16:46:46.029Z,24.35
2023-03-06T16:49:21.519Z,15.57
2023-03-06T16:51:48.684Z,16.30
2023-03-06T16:54:15.604Z,12.10
2023-03-06T16:56:43.018Z,10.90
2023-03-06T16:59:10.599Z,13.88
2023-03-06T17:01:37.551Z,24.20
2023-03-06T17:04:04.469Z,21.13
2023-03-06T17:06:31.345Z,18.02
2023-03-06T17:08:58.427Z,19.17
2023-03-06T17:11:25.264Z,17.50
2023-03-06T17:13:52.272Z,17.67
2023-03-06T17:16:40.884Z,13.63
2023-03-06T17:19:07.882Z,16.83
2023-03-06T17:21:35.739Z,15.02
2023-03-06T17:24:03.976Z,17.20
2023-03-06T17:26:30.663Z,16.48
2023-03-06T17:28:57.417Z,16.05
2023-03-06T17:31:27.901Z,18.83
2023-03-06T17:33:59.298Z,21.23
2023-03-06T17:36:30.336Z,20.92
2023-03-06T17:39:02.161Z,16.70
2023-03-06T17:41:28.946Z,15.68
2023-03-06T17:43:56.374Z,12.70
2023-03-06T17:46:23.159Z,13.15
2023-03-06T17:48:50.254Z,14.70
2023-03-06T17:51:19.119Z,12.43
2023-03-06T17:53:45.872Z,13.85
2023-03-06T17:56:15.273Z,11.43
2023-03-06T17:58:43.151Z,13.65
2023-03-06T18:01:18.457Z,13.80
2023-03-06T18:03:46.543Z,14.68
2023-03-06T18:06:13.829Z,14.88
2023-03-06T18:08:41.259Z,15.00
2023-03-06T18:11:09.748Z,13.98
2023-03-06T18:13:38.928Z,17.10
2023-03-06T18:16:06.452Z,16.02
2023-03-06T18:18:33.313Z,16.58
2023-03-06T18:21:10.850Z,16.15
2023-03-06T18:23:38.351Z,19.92
2023-03-06T18:26:16.692Z,18.80
2023-03-06T18:28:45.468Z,19.40
2023-03-06T18:31:20.835Z,17.08
2023-03-06T18:33:48.693Z,17.52
2023-03-06T18:36:16.043Z,15.60
2023-03-06T18:38:44.176Z,15.68
2023-03-06T18:41:11.813Z,16.80
2023-03-06T18:43:38.756Z,19.52
2023-03-06T18:46:06.257Z,15.55
2023-03-06T18:48:32.994Z,15.50
2023-03-06T18:51:10.861Z,13.93
2023-03-06T18:53:37.666Z,14.80
2023-03-06T18:56:05.114Z,11.98
2023-03-06T18:58:36.911Z,13.65
2023-03-06T19:01:07.420Z,17.52
2023-03-06T19:03:34.184Z,17.67
2023-03-06T19:06:07.301Z,16.85
2023-03-06T19:11:06.246Z,15.20
2023-03-06T19:13:33.019Z,16.35
2023-03-06T19:16:00.245Z,16.08
2023-03-06T19:18:28.411Z,16.52
2023-03-06T19:20:56.616Z,16.80
2023-03-06T19:23:23.446Z,19.83
2023-03-06T19:26:00.083Z,17.20
2023-03-06T19:28:27.361Z,18.10
2023-03-06T19:30:54.384Z,16.08
2023-03-06T19:33:21.363Z,16.20
2023-03-06T19:35:48.438Z,16.80
2023-03-06T19:38:15.692Z,15.55
2023-03-06T19:40:49.547Z,14.10
2023-03-06T19:43:16.414Z,17.95
2023-03-06T19:45:44.317Z,14.20
2023-03-06T19:48:12.636Z,16.90
2023-03-06T19:50:40.385Z,16.70
2023-03-06T19:53:07.920Z,17.88
2023-03-06T19:55:35.021Z,17.23
2023-03-06T19:58:02.014Z,15.88
2023-03-06T20:00:29.279Z,15.07
2023-03-06T20:02:56.892Z,16.73
2023-03-06T20:05:23.847Z,16.35
2023-03-06T20:07:51.313Z,13.80
2023-03-06T20:10:18.344Z,12.77
2023-03-06T20:12:45.574Z,13.90
2023-03-06T20:15:13.357Z,12.48
2023-03-06T20:17:42.758Z,14.88
2023-03-06T20:20:10.486Z,15.88
2023-03-06T20:22:37.235Z,13.60
2023-03-06T20:25:04.547Z,14.18
2023-03-06T20:27:31.289Z,12.95
2023-03-06T20:30:00.218Z,15.10
2023-03-06T20:32:27.019Z,13.38
2023-03-06T20:34:53.717Z,14.18
2023-03-06T20:37:20.642Z,13.93
2023-03-06T20:39:47.945Z,14.85
2023-03-06T20:42:14.746Z,14.25
2023-03-06T20:44:41.532Z,15.25
2023-03-06T20:47:08.993Z,14.23
2023-03-06T20:49:44.909Z,16.52
2023-03-06T20:52:11.603Z,16.30
2023-03-06T20:54:39.479Z,13.55
2023-03-06T20:57:06.160Z,18.80
2023-03-06T20:59:32.888Z,18.27
2023-03-06T21:02:03.894Z,18.20
2023-03-06T21:04:34.978Z,13.73
2023-03-06T21:07:01.744Z,14.05
2023-03-06T21:09:28.580Z,14.93
2023-03-06T21:11:55.326Z,15.10
2023-03-06T21:14:22.076Z,16.45
2023-03-06T21:16:48.893Z,16.10
2023-03-06T21:19:15.684Z,18.10
2023-03-06T21:21:42.514Z,19.83
2023-03-06T21:24:09.288Z,13.68
2023-03-06T21:26:36.085Z,12.98
2023-03-06T21:29:03.098Z,13.23
2023-03-06T21:31:31.080Z,15.95
2023-03-06T21:33:58.958Z,12.18
2023-03-06T21:36:26.358Z,15.23
2023-03-06T21:38:53.831Z,15.23
2023-03-06T21:41:32.657Z,14.20
2023-03-06T21:44:01.213Z,13.02
2023-03-06T21:46:28.335Z,14.27
2023-03-06T21:48:55.048Z,12.10
2023-03-06T21:51:23.838Z,15.05
2023-03-06T21:53:51.319Z,12.32
2023-03-06T21:56:19.495Z,12.70
2023-03-06T21:58:46.154Z,12.45
2023-03-06T22:01:18.950Z,13.10
2023-03-06T22:03:45.919Z,12.93
2023-03-06T22:06:15.339Z,13.27
2023-03-06T22:08:42.446Z,12.38
2023-03-06T22:11:11.234Z,13.10
2023-03-06T22:13:38.212Z,13.55
2023-03-06T22:16:05.564Z,13.73
2023-03-06T22:18:32.615Z,13.77
2023-03-06T22:20:59.573Z,12.82
2023-03-06T22:23:26.480Z,14.02
2023-03-06T22:25:53.293Z,14.70
2023-03-06T22:28:19.984Z,15.27
2023-03-06T22:30:46.738Z,13.43
2023-03-06T22:33:13.423Z,13.85
2023-03-06T22:35:40.265Z,14.00
2023-03-06T22:38:06.912Z,15.45
2023-03-06T22:40:33.786Z,13.23
2023-03-06T22:43:00.528Z,13.35
2023-03-06T22:45:27.437Z,13.18
2023-03-06T22:48:02.361Z,14.00
2023-03-06T22:50:35.931Z,14.25
2023-03-06T22:53:02.630Z,15.95
2023-03-06T22:55:29.374Z,14.52
2023-03-06T22:57:56.108Z,13.65
2023-03-06T23:00:22.898Z,16.85
2023-03-06T23:02:49.613Z,15.45
2023-03-06T23:05:16.438Z,13.25
2023-03-06T23:07:43.155Z,13.70
2023-03-06T23:10:10.648Z,16.02
2023-03-06T23:12:37.407Z,13.98
2023-03-06T23:15:04.703Z,13.98
2023-03-06T23:17:31.329Z,16.13
2023-03-06T23:19:58.038Z,15.52
2023-03-06T23:22:24.742Z,14.68
2023-03-06T23:24:51.544Z,13.57
2023-03-06T23:27:19.396Z,12.80
2023-03-06T23:29:49.984Z,12.32
2023-03-06T23:32:16.692Z,12.95
2023-03-06T23:34:43.425Z,15.82
2023-03-06T23:37:10.103Z,13.60
2023-03-06T23:39:37.442Z,13.07
2023-03-06T23:42:04.252Z,13.30
2023-03-06T23:44:30.989Z,13.65
2023-03-06T23:46:57.706Z,15.45
2023-03-06T23:49:24.451Z,14.82
2023-03-06T23:51:51.116Z,14.65
2023-03-06T23:54:18.800Z,15.55
2023-03-06T23:56:45.468Z,14.40
2023-03-06T23:59:12.246Z,14.07
